createdAt,value
2018-11-06T00:01:50.609Z,9.70
2018-11-06T00:04:20.454Z,9.70
2018-11-06T00:06:49.133Z,9.70
2018-11-06T00:09:17.706Z,9.70
2018-11-06T00:11:46.135Z,9.70
2018-11-06T00:14:14.714Z,9.80
2018-11-06T00:16:43.206Z,9.80
2018-11-06T00:19:11.774Z,9.80
2018-11-06T00:21:40.546Z,9.90
2018-11-06T00:24:09.050Z,9.90
2018-11-06T00:26:37.642Z,9.90
2018-11-06T00:29:06.225Z,10.00
2018-11-06T00:31:34.769Z,10.00
2018-11-06T00:34:03.289Z,10.00
2018-11-06T00:36:31.851Z,10.00
2018-11-06T00:39:00.356Z,10.00
2018-11-06T00:41:28.864Z,10.00
2018-11-06T00:43:57.348Z,10.00
2018-11-06T00:46:25.862Z,10.00
2018-11-06T00:48:54.321Z,10.00
2018-11-06T00:51:22.808Z,10.10
2018-11-06T00:53:51.308Z,10.00
2018-11-06T00:56:19.822Z,10.10
2018-11-06T00:58:48.932Z,10.10
2018-11-06T01:01:17.429Z,10.00
2018-11-06T01:03:53.984Z,10.10
2018-11-06T01:06:24.126Z,10.10
2018-11-06T01:08:52.638Z,10.10
2018-11-06T01:11:21.150Z,10.00
2018-11-06T01:13:49.698Z,10.10
2018-11-06T01:16:18.189Z,10.00
2018-11-06T01:18:46.704Z,10.00
2018-11-06T01:21:15.266Z,10.00
2018-11-06T01:23:43.776Z,10.00
2018-11-06T01:26:12.273Z,10.10
2018-11-06T01:28:40.781Z,10.10
2018-11-06T01:31:09.388Z,10.10
2018-11-06T01:33:37.984Z,10.10
2018-11-06T01:36:06.521Z,10.10
2018-11-06T01:38:35.051Z,10.10
2018-11-06T01:41:03.561Z,10.10
2018-11-06T01:43:32.042Z,10.10
2018-11-06T01:46:00.652Z,10.10
2018-11-06T01:48:29.172Z,10.10
2018-11-06T01:50:57.668Z,10.10
2018-11-06T01:53:26.150Z,10.10
2018-11-06T01:55:54.621Z,10.10
2018-11-06T01:58:23.102Z,10.10
2018-11-06T02:00:51.591Z,10.10
2018-11-06T02:03:21.229Z,10.10
2018-11-06T02:05:49.731Z,10.10
2018-11-06T02:08:18.291Z,10.10
2018-11-06T02:10:47.367Z,10.10
2018-11-06T02:13:15.891Z,10.10
2018-11-06T02:15:44.422Z,10.10
2018-11-06T02:18:12.967Z,10.10
2018-11-06T02:20:41.491Z,10.10
2018-11-06T02:23:09.983Z,10.20
2018-11-06T02:25:38.775Z,10.20
2018-11-06T02:28:07.418Z,10.20
2018-11-06T02:30:35.941Z,10.20
2018-11-06T02:33:04.601Z,10.30
2018-11-06T02:35:33.091Z,10.30
2018-11-06T02:38:01.581Z,10.30
2018-11-06T02:40:30.059Z,10.30
2018-11-06T02:42:58.644Z,10.40
2018-11-06T02:45:27.130Z,10.40
2018-11-06T02:47:55.606Z,10.40
2018-11-06T02:50:24.127Z,10.50
2018-11-06T02:52:52.606Z,10.50
2018-11-06T02:55:21.220Z,10.40
2018-11-06T02:57:49.812Z,10.40
2018-11-06T03:00:19.213Z,10.40
2018-11-06T03:02:48.294Z,10.40
2018-11-06T03:05:16.902Z,10.40
2018-11-06T03:07:45.576Z,10.40
2018-11-06T03:10:14.978Z,10.40
2018-11-06T03:12:44.195Z,10.40
2018-11-06T03:15:13.783Z,10.40
2018-11-06T03:17:42.455Z,10.50
2018-11-06T03:20:11.800Z,10.50
2018-11-06T03:22:40.873Z,10.50
2018-11-06T03:25:09.470Z,10.60
2018-11-06T03:27:38.258Z,10.50
2018-11-06T03:30:10.094Z,10.60
2018-11-06T03:32:38.588Z,10.60
2018-11-06T03:35:07.494Z,10.70
2018-11-06T03:37:36.044Z,10.70
2018-11-06T03:40:05.188Z,10.70
2018-11-06T03:42:33.798Z,10.70
2018-11-06T03:45:02.390Z,10.70
2018-11-06T03:47:30.934Z,10.70
2018-11-06T03:49:59.411Z,10.70
2018-11-06T03:52:28.008Z,10.70
2018-11-06T03:54:56.518Z,10.70
2018-11-06T03:57:25.254Z,10.70
2018-11-06T03:59:53.771Z,10.70
2018-11-06T04:02:22.460Z,10.70
2018-11-06T04:04:50.974Z,10.80
2018-11-06T04:07:19.460Z,10.80
2018-11-06T04:09:47.957Z,10.80
2018-11-06T04:12:16.439Z,10.80
2018-11-06T04:14:44.916Z,10.70
2018-11-06T04:17:13.400Z,10.70
2018-11-06T04:19:42.133Z,10.70
2018-11-06T04:22:10.671Z,10.70
2018-11-06T04:24:39.203Z,10.70
2018-11-06T04:27:07.756Z,10.70
2018-11-06T04:29:36.358Z,10.70
2018-11-06T04:32:05.050Z,10.70
2018-11-06T04:34:33.532Z,10.70
2018-11-06T04:37:02.016Z,10.70
2018-11-06T04:39:30.511Z,10.70
2018-11-06T04:41:59.064Z,10.70
2018-11-06T04:44:27.642Z,10.80
2018-11-06T04:46:56.248Z,10.80
2018-11-06T04:49:25.042Z,10.80
2018-11-06T04:51:53.512Z,10.80
2018-11-06T04:54:22.960Z,10.80
2018-11-06T04:56:51.450Z,10.80
2018-11-06T04:59:20.116Z,10.80
2018-11-06T05:02:13.842Z,10.80
2018-11-06T05:04:42.267Z,10.90
2018-11-06T05:07:50.140Z,10.90
2018-11-06T05:10:18.620Z,10.90
2018-11-06T05:12:47.094Z,10.90
2018-11-06T05:15:16.314Z,10.90
2018-11-06T05:17:45.220Z,10.90
2018-11-06T05:20:15.442Z,10.90
2018-11-06T05:22:44.795Z,10.90
2018-11-06T05:25:13.314Z,11.00
2018-11-06T05:27:41.786Z,11.00
2018-11-06T05:30:11.529Z,11.00
2018-11-06T05:32:41.352Z,11.00
2018-11-06T05:35:10.439Z,11.10
2018-11-06T05:37:39.225Z,11.00
2018-11-06T05:40:19.026Z,11.10
2018-11-06T05:42:47.601Z,11.00
2018-11-06T05:45:16.111Z,11.10
2018-11-06T05:47:44.705Z,11.10
2018-11-06T05:50:13.309Z,11.10
2018-11-06T05:52:41.877Z,11.10
2018-11-06T05:55:10.363Z,11.10
2018-11-06T05:57:38.961Z,11.10
2018-11-06T06:00:07.921Z,11.10
2018-11-06T06:02:36.519Z,11.10
2018-11-06T06:05:06.162Z,11.10
2018-11-06T06:07:34.947Z,11.10
2018-11-06T06:10:03.637Z,11.10
2018-11-06T06:12:32.167Z,11.10
2018-11-06T06:15:00.640Z,11.10
2018-11-06T06:17:29.169Z,11.10
2018-11-06T06:19:57.645Z,11.10
2018-11-06T06:22:26.181Z,11.10
2018-11-06T06:24:54.645Z,11.10
2018-11-06T06:27:23.135Z,11.20
2018-11-06T06:29:51.694Z,11.20
2018-11-06T06:32:20.813Z,11.20
2018-11-06T06:34:49.491Z,11.20
2018-11-06T06:37:17.988Z,11.20
2018-11-06T06:39:46.560Z,11.20
2018-11-06T06:42:15.117Z,11.20
2018-11-06T06:44:43.605Z,11.20
2018-11-06T06:47:12.069Z,11.20
2018-11-06T06:49:40.697Z,11.20
2018-11-06T06:52:09.338Z,11.20
2018-11-06T06:54:38.098Z,11.20
2018-11-06T06:57:06.498Z,11.20
2018-11-06T06:59:35.112Z,11.10
2018-11-06T07:02:03.616Z,11.10
2018-11-06T07:04:32.160Z,11.10
2018-11-06T07:07:00.625Z,11.10
2018-11-06T07:09:29.136Z,11.10
2018-11-06T07:11:57.664Z,11.10
2018-11-06T07:14:26.196Z,11.20
2018-11-06T07:16:54.701Z,11.20
2018-11-06T07:19:23.204Z,11.20
2018-11-06T07:21:52.292Z,11.30
2018-11-06T07:24:20.774Z,11.30
2018-11-06T07:26:49.270Z,11.40
2018-11-06T07:29:18.020Z,11.50
2018-11-06T07:31:46.614Z,11.60
2018-11-06T07:34:15.318Z,11.60
2018-11-06T07:36:43.914Z,11.70
2018-11-06T07:39:13.055Z,11.70
2018-11-06T07:41:41.762Z,11.80
2018-11-06T07:44:11.376Z,11.90
2018-11-06T07:46:40.046Z,11.90
2018-11-06T07:49:11.027Z,12.00
2018-11-06T07:51:39.516Z,12.10
2018-11-06T07:54:08.098Z,12.10
2018-11-06T07:56:36.618Z,12.20
2018-11-06T07:59:05.410Z,12.20
2018-11-06T08:01:33.885Z,12.20
2018-11-06T08:04:02.454Z,12.30
2018-11-06T08:06:30.955Z,12.30
2018-11-06T08:08:59.898Z,12.30
2018-11-06T08:11:29.321Z,12.30
2018-11-06T08:13:57.782Z,12.40
2018-11-06T08:16:27.541Z,12.40
2018-11-06T08:18:56.064Z,12.40
2018-11-06T08:21:24.543Z,12.40
2018-11-06T08:23:53.074Z,12.30
2018-11-06T08:26:21.548Z,12.40
2018-11-06T08:28:50.049Z,12.40
2018-11-06T08:31:18.770Z,12.40
2018-11-06T08:33:47.081Z,12.50
2018-11-06T08:36:15.770Z,12.50
2018-11-06T08:38:44.241Z,12.60
2018-11-06T08:41:12.739Z,12.60
2018-11-06T08:43:41.382Z,12.70
2018-11-06T08:46:09.901Z,12.70
2018-11-06T08:48:38.410Z,12.80
2018-11-06T08:51:06.895Z,12.90
2018-11-06T08:53:35.408Z,13.00
2018-11-06T08:56:03.921Z,13.00
2018-11-06T08:58:32.466Z,13.10
2018-11-06T09:01:00.951Z,13.20
2018-11-06T09:03:29.513Z,13.30
2018-11-06T09:05:58.019Z,13.30
2018-11-06T09:08:26.514Z,13.40
2018-11-06T09:10:55.085Z,13.60
2018-11-06T09:13:23.615Z,13.60
2018-11-06T09:15:52.115Z,13.70
2018-11-06T09:18:20.622Z,13.80
2018-11-06T09:20:55.470Z,13.80
2018-11-06T09:23:23.993Z,13.80
2018-11-06T09:25:52.844Z,13.80
2018-11-06T09:28:21.315Z,13.70
2018-11-06T09:30:49.871Z,13.70
2018-11-06T09:33:18.349Z,13.70
2018-11-06T09:35:46.868Z,13.70
2018-11-06T09:38:15.381Z,13.70
2018-11-06T09:40:43.905Z,13.70
2018-11-06T09:43:12.785Z,13.80
2018-11-06T09:45:41.335Z,13.90
2018-11-06T09:48:09.847Z,14.00
2018-11-06T09:50:38.346Z,14.20
2018-11-06T09:53:06.917Z,14.40
2018-11-06T09:55:35.475Z,14.60
2018-11-06T09:58:04.973Z,14.70
2018-11-06T10:00:33.477Z,14.90
2018-11-06T10:03:02.093Z,14.90
2018-11-06T10:05:30.600Z,15.00
2018-11-06T10:07:59.099Z,15.10
2018-11-06T10:10:27.625Z,15.20
2018-11-06T10:12:57.078Z,15.30
2018-11-06T10:15:25.584Z,15.40
2018-11-06T10:17:54.286Z,15.50
2018-11-06T10:20:22.791Z,15.60
2018-11-06T10:22:51.265Z,15.70
2018-11-06T10:25:20.877Z,15.80
2018-11-06T10:27:49.963Z,15.80
2018-11-06T10:30:19.558Z,15.90
2018-11-06T10:32:50.257Z,16.00
2018-11-06T10:35:18.759Z,16.10
2018-11-06T10:37:47.279Z,16.20
2018-11-06T10:40:18.492Z,16.30
2018-11-06T10:42:47.670Z,16.40
2018-11-06T10:45:17.575Z,16.40
2018-11-06T10:47:46.266Z,16.40
2018-11-06T10:50:15.689Z,16.50
2018-11-06T10:52:45.944Z,16.60
2018-11-06T10:55:14.472Z,16.70
2018-11-06T10:57:43.306Z,16.80
2018-11-06T11:00:18.301Z,16.90
2018-11-06T11:02:52.090Z,17.00
2018-11-06T11:05:22.146Z,17.00
2018-11-06T11:07:50.862Z,17.10
2018-11-06T11:10:19.394Z,17.20
2018-11-06T11:12:47.882Z,17.30
2018-11-06T11:15:16.869Z,17.40
2018-11-06T11:17:45.415Z,17.50
2018-11-06T11:20:19.549Z,17.50
2018-11-06T11:22:48.066Z,17.50
2018-11-06T11:25:16.956Z,17.50
2018-11-06T11:27:46.432Z,17.50
2018-11-06T11:30:15.976Z,17.50
2018-11-06T11:32:45.979Z,17.50
2018-11-06T11:35:14.973Z,17.40
2018-11-06T11:37:43.584Z,17.40
2018-11-06T11:40:13.991Z,17.40
2018-11-06T11:42:43.308Z,17.40
2018-11-06T11:45:13.096Z,17.30
2018-11-06T11:47:41.988Z,17.40
2018-11-06T11:50:12.118Z,17.40
2018-11-06T11:52:41.561Z,17.40
2018-11-06T11:55:10.514Z,17.50
2018-11-06T11:57:39.619Z,17.70
2018-11-06T12:00:14.565Z,17.60
2018-11-06T12:02:46.273Z,17.60
2018-11-06T12:05:14.835Z,17.60
2018-11-06T12:07:45.539Z,17.60
2018-11-06T12:10:14.305Z,17.70
2018-11-06T12:12:43.715Z,17.90
2018-11-06T12:15:15.048Z,18.00
2018-11-06T12:17:44.644Z,18.20
2018-11-06T12:20:13.766Z,18.40
2018-11-06T12:22:42.985Z,18.40
2018-11-06T12:25:12.287Z,18.40
2018-11-06T12:27:40.548Z,18.40
2018-11-06T12:30:11.225Z,18.40
2018-11-06T12:32:40.117Z,18.40
2018-11-06T12:35:10.361Z,18.40
2018-11-06T12:37:42.062Z,18.40
2018-11-06T12:40:11.733Z,18.30
2018-11-06T12:42:41.561Z,18.20
2018-11-06T12:45:12.026Z,18.30
2018-11-06T12:47:40.976Z,18.30
2018-11-06T12:50:09.968Z,18.30
2018-11-06T12:52:39.157Z,18.40
2018-11-06T12:55:09.216Z,18.50
2018-11-06T12:57:37.899Z,18.50
2018-11-06T13:00:12.935Z,18.50
2018-11-06T13:02:41.440Z,18.60
2018-11-06T13:05:10.266Z,18.60
2018-11-06T13:07:40.104Z,18.70
2018-11-06T13:10:09.604Z,18.80
2018-11-06T13:12:38.904Z,18.80
2018-11-06T13:15:08.019Z,18.90
2018-11-06T13:17:37.736Z,18.90
2018-11-06T13:20:08.167Z,18.80
2018-11-06T13:22:37.034Z,18.80
2018-11-06T13:25:06.697Z,18.80
2018-11-06T13:27:35.550Z,18.70
2018-11-06T13:30:04.218Z,18.80
2018-11-06T13:32:32.823Z,19.00
2018-11-06T13:35:02.223Z,19.20
2018-11-06T13:37:30.734Z,19.40
2018-11-06T13:39:59.390Z,19.60
2018-11-06T13:42:27.997Z,19.80
2018-11-06T13:44:56.785Z,20.00
2018-11-06T13:47:25.648Z,20.00
2018-11-06T13:49:54.138Z,20.00
2018-11-06T13:52:22.804Z,19.90
2018-11-06T13:54:53.674Z,19.80
2018-11-06T13:57:32.390Z,19.70
2018-11-06T14:00:01.746Z,19.60
2018-11-06T14:02:30.328Z,19.50
2018-11-06T14:04:59.942Z,19.40
2018-11-06T14:07:28.455Z,19.30
2018-11-06T14:09:56.944Z,19.30
2018-11-06T14:12:25.542Z,19.30
2018-11-06T14:14:54.018Z,19.20
2018-11-06T14:17:24.703Z,19.10
2018-11-06T14:19:53.330Z,19.10
2018-11-06T14:22:21.802Z,19.00
2018-11-06T14:24:50.274Z,19.00
2018-11-06T14:27:19.407Z,18.90
2018-11-06T14:29:48.068Z,18.90
2018-11-06T14:32:16.846Z,18.80
2018-11-06T14:34:45.352Z,18.80
2018-11-06T14:37:13.873Z,18.70
2018-11-06T14:39:42.446Z,18.70
2018-11-06T14:42:11.193Z,18.70
2018-11-06T14:44:39.764Z,18.60
2018-11-06T14:47:08.378Z,18.60
2018-11-06T14:49:36.941Z,18.60
2018-11-06T14:52:06.037Z,18.50
2018-11-06T14:54:34.913Z,18.50
2018-11-06T14:57:03.452Z,18.40
2018-11-06T14:59:32.243Z,18.40
2018-11-06T15:02:00.783Z,18.30
2018-11-06T15:04:30.482Z,18.30
2018-11-06T15:06:59.624Z,18.20
2018-11-06T15:09:28.142Z,18.20
2018-11-06T15:11:56.679Z,18.10
2018-11-06T15:14:25.205Z,18.10
2018-11-06T15:16:53.720Z,18.00
2018-11-06T15:19:22.219Z,17.90
2018-11-06T15:21:50.765Z,17.90
2018-11-06T15:24:20.381Z,17.80
2018-11-06T15:26:49.082Z,17.70
2018-11-06T15:29:17.583Z,17.60
2018-11-06T15:31:46.064Z,17.60
2018-11-06T15:34:14.593Z,17.50
2018-11-06T15:36:43.661Z,17.40
2018-11-06T15:39:13.101Z,17.40
2018-11-06T15:41:42.243Z,17.30
2018-11-06T15:44:10.693Z,17.20
2018-11-06T15:46:39.181Z,17.20
2018-11-06T15:49:07.842Z,17.10
2018-11-06T15:51:37.049Z,17.10
2018-11-06T15:54:06.931Z,17.00
2018-11-06T15:56:35.435Z,16.90
2018-11-06T15:59:04.399Z,16.80
2018-11-06T16:01:32.947Z,16.80
2018-11-06T16:04:01.466Z,16.70
2018-11-06T16:06:30.756Z,16.70
2018-11-06T16:08:59.395Z,16.60
2018-11-06T16:11:27.864Z,16.50
2018-11-06T16:13:56.382Z,16.40
2018-11-06T16:16:25.721Z,16.40
2018-11-06T16:18:54.258Z,16.30
2018-11-06T16:21:23.455Z,16.20
2018-11-06T16:23:52.059Z,16.10
2018-11-06T16:26:21.065Z,16.10
2018-11-06T16:28:50.830Z,16.00
2018-11-06T16:31:19.354Z,15.90
2018-11-06T16:33:47.872Z,15.90
2018-11-06T16:36:16.370Z,15.80
2018-11-06T16:38:44.947Z,15.70
2018-11-06T16:41:13.476Z,15.70
2018-11-06T16:43:42.033Z,15.60
2018-11-06T16:46:10.554Z,15.50
2018-11-06T16:48:39.092Z,15.50
2018-11-06T16:51:07.829Z,15.40
2018-11-06T16:53:36.396Z,15.40
2018-11-06T16:56:05.248Z,15.40
2018-11-06T16:58:33.792Z,15.30
2018-11-06T17:01:03.409Z,15.30
2018-11-06T17:03:31.966Z,15.30
2018-11-06T17:06:00.496Z,15.30
2018-11-06T17:08:29.006Z,15.20
2018-11-06T17:10:58.288Z,15.20
2018-11-06T17:13:28.429Z,15.20
2018-11-06T17:15:57.180Z,15.30
2018-11-06T17:18:25.837Z,15.20
2018-11-06T17:20:54.430Z,15.30
2018-11-06T17:23:22.978Z,15.30
2018-11-06T17:25:53.081Z,15.30
2018-11-06T17:28:21.612Z,15.30
2018-11-06T17:30:50.117Z,15.30
2018-11-06T17:33:20.483Z,15.20
2018-11-06T17:35:49.391Z,15.20
2018-11-06T17:38:17.903Z,15.20
2018-11-06T17:40:47.120Z,15.20
2018-11-06T17:43:15.744Z,15.20
2018-11-06T17:45:44.269Z,15.10
2018-11-06T17:48:12.742Z,15.10
2018-11-06T17:50:41.244Z,15.00
2018-11-06T17:53:09.820Z,15.00
2018-11-06T17:55:38.754Z,15.00
2018-11-06T17:58:07.473Z,15.00
2018-11-06T18:00:36.026Z,15.00
2018-11-06T18:03:05.560Z,14.90
2018-11-06T18:05:34.069Z,14.90
2018-11-06T18:08:03.380Z,14.90
2018-11-06T18:10:31.967Z,14.80
2018-11-06T18:13:00.442Z,14.80
2018-11-06T18:15:29.166Z,14.80
2018-11-06T18:17:57.708Z,14.80
2018-11-06T18:20:26.734Z,14.70
2018-11-06T18:22:55.281Z,14.70
2018-11-06T18:25:23.918Z,14.60
2018-11-06T18:27:52.398Z,14.60
2018-11-06T18:30:20.972Z,14.60
2018-11-06T18:32:50.131Z,14.60
2018-11-06T18:35:19.131Z,14.50
2018-11-06T18:37:47.668Z,14.50
2018-11-06T18:40:18.751Z,14.50
2018-11-06T18:42:48.254Z,14.50
2018-11-06T18:45:16.954Z,14.40
2018-11-06T18:47:45.548Z,14.40
2018-11-06T18:50:15.354Z,14.40
2018-11-06T18:52:46.160Z,14.30
2018-11-06T18:55:14.723Z,14.30
2018-11-06T18:57:44.175Z,14.30
2018-11-06T19:00:15.408Z,14.30
2018-11-06T19:02:45.222Z,14.30
2018-11-06T19:05:15.229Z,14.30
2018-11-06T19:07:45.008Z,14.20
2018-11-06T19:10:14.568Z,14.20
2018-11-06T19:12:43.350Z,14.20
2018-11-06T19:15:14.526Z,14.20
2018-11-06T19:17:44.009Z,14.20
2018-11-06T19:20:13.103Z,14.20
2018-11-06T19:22:41.726Z,14.20
2018-11-06T19:25:11.302Z,14.20
2018-11-06T19:27:39.929Z,14.20
2018-11-06T19:30:11.185Z,14.10
2018-11-06T19:32:40.209Z,14.10
2018-11-06T19:35:08.944Z,14.10
2018-11-06T19:37:37.998Z,14.10
2018-11-06T19:40:08.733Z,14.00
2018-11-06T19:42:37.610Z,14.00
2018-11-06T19:45:06.961Z,14.00
2018-11-06T19:47:35.503Z,14.00
2018-11-06T19:50:04.240Z,14.00
2018-11-06T19:52:32.891Z,14.00
2018-11-06T19:55:01.455Z,14.00
2018-11-06T19:57:29.996Z,14.00
2018-11-06T19:59:58.630Z,14.00
2018-11-06T20:02:27.163Z,13.90
2018-11-06T20:04:55.717Z,13.90
2018-11-06T20:07:24.711Z,14.00
2018-11-06T20:09:53.246Z,13.90
2018-11-06T20:12:21.939Z,13.90
2018-11-06T20:14:50.462Z,13.90
2018-11-06T20:17:18.970Z,13.90
2018-11-06T20:19:47.500Z,13.90
2018-11-06T20:22:16.561Z,13.90
2018-11-06T20:24:45.110Z,13.90
2018-11-06T20:27:13.686Z,13.80
2018-11-06T20:29:42.311Z,13.80
2018-11-06T20:32:10.884Z,13.80
2018-11-06T20:34:39.399Z,13.70
2018-11-06T20:37:07.964Z,13.70
2018-11-06T20:39:36.605Z,13.70
2018-11-06T20:42:05.492Z,13.60
2018-11-06T20:44:34.019Z,13.60
2018-11-06T20:47:02.520Z,13.60
2018-11-06T20:49:31.167Z,13.50
2018-11-06T20:51:59.653Z,13.50
2018-11-06T20:54:28.214Z,13.50
2018-11-06T20:56:57.577Z,13.50
2018-11-06T20:59:26.115Z,13.50
2018-11-06T21:01:54.703Z,13.50
2018-11-06T21:04:23.200Z,13.60
2018-11-06T21:06:51.790Z,13.60
2018-11-06T21:09:20.249Z,13.60
2018-11-06T21:11:51.172Z,13.60
2018-11-06T21:14:19.663Z,13.60
2018-11-06T21:16:48.163Z,13.60
2018-11-06T21:19:17.998Z,13.60
2018-11-06T21:21:46.491Z,13.60
2018-11-06T21:24:15.009Z,13.60
2018-11-06T21:26:44.393Z,13.60
2018-11-06T21:29:15.601Z,13.60
2018-11-06T21:31:45.012Z,13.60
2018-11-06T21:34:14.610Z,13.60
2018-11-06T21:36:43.118Z,13.60
2018-11-06T21:39:13.945Z,13.60
2018-11-06T21:41:44.897Z,13.60
2018-11-06T21:44:14.430Z,13.60
2018-11-06T21:46:42.986Z,13.50
2018-11-06T21:49:12.050Z,13.50
2018-11-06T21:51:40.578Z,13.50
2018-11-06T21:54:10.409Z,13.50
2018-11-06T21:56:43.155Z,13.50
2018-11-06T21:59:11.648Z,13.50
2018-11-06T22:01:41.346Z,13.50
2018-11-06T22:04:09.852Z,13.40
2018-11-06T22:06:38.534Z,13.40
2018-11-06T22:09:11.760Z,13.30
2018-11-06T22:11:40.345Z,13.30
2018-11-06T22:14:11.062Z,13.30
2018-11-06T22:16:39.955Z,13.20
2018-11-06T22:19:09.921Z,13.20
2018-11-06T22:21:38.468Z,13.20
2018-11-06T22:24:07.129Z,13.10
2018-11-06T22:26:37.003Z,13.10
2018-11-06T22:29:07.303Z,13.10
2018-11-06T22:31:35.856Z,13.10
2018-11-06T22:34:06.928Z,13.10
2018-11-06T22:36:37.828Z,13.10
2018-11-06T22:39:09.188Z,13.10
2018-11-06T22:41:40.109Z,13.00
2018-11-06T22:44:09.687Z,13.00
2018-11-06T22:46:39.931Z,12.90
2018-11-06T22:49:09.756Z,12.90
2018-11-06T22:51:38.847Z,12.90
2018-11-06T22:54:08.880Z,12.90
2018-11-06T22:56:37.721Z,12.90
2018-11-06T22:59:07.469Z,12.90
2018-11-06T23:01:36.060Z,12.90
2018-11-06T23:04:05.169Z,12.80
2018-11-06T23:06:33.802Z,12.80
2018-11-06T23:09:02.246Z,12.80
2018-11-06T23:11:30.729Z,12.80
2018-11-06T23:13:59.233Z,12.80
2018-11-06T23:16:27.766Z,12.70
2018-11-06T23:18:56.237Z,12.70
2018-11-06T23:21:24.731Z,12.70
2018-11-06T23:23:53.248Z,12.60
2018-11-06T23:26:21.871Z,12.60
2018-11-06T23:28:51.681Z,12.60
2018-11-06T23:31:20.185Z,12.60
2018-11-06T23:33:58.306Z,12.50
2018-11-06T23:36:30.037Z,12.50
2018-11-06T23:38:58.534Z,12.40
2018-11-06T23:41:27.692Z,12.40
2018-11-06T23:44:02.056Z,12.40
2018-11-06T23:46:32.989Z,12.30
2018-11-06T23:49:01.490Z,12.30
2018-11-06T23:51:32.892Z,12.30
2018-11-06T23:54:01.404Z,12.20
2018-11-06T23:56:30.139Z,12.20
2018-11-06T23:59:00.924Z,12.20
